sensor_id;sensor_type;location;lat;lon;timestamp;P1;durP1;ratioP1;P2;durP2;ratioP2
60068;SDS011;45945;53.350;55.922;2023-04-06T00:00:08;14.20;;;4.70;;
60068;SDS011;45945;53.350;55.922;2023-04-06T00:01:10;15.10;;;4.78;;
60068;SDS011;45945;53.350;55.922;2023-04-06T00:02:11;18.10;;;5.07;;
60068;SDS011;45945;53.350;55.922;2023-04-06T00:03:12;19.27;;;4.75;;
60068;SDS011;45945;53.350;55.922;2023-04-06T00:04:13;17.15;;;5.40;;
60068;SDS011;45945;53.350;55.922;2023-04-06T00:05:13;17.10;;;4.90;;
60068;SDS011;45945;53.350;55.922;2023-04-06T00:06:15;18.60;;;5.07;;
60068;SDS011;45945;53.350;55.922;2023-04-06T00:07:16;19.45;;;5.05;;
60068;SDS011;45945;53.350;55.922;2023-04-06T00:08:17;16.95;;;4.75;;
60068;SDS011;45945;53.350;55.922;2023-04-06T00:09:18;15.15;;;5.00;;
60068;SDS011;45945;53.350;55.922;2023-04-06T00:10:19;19.60;;;5.53;;
60068;SDS011;45945;53.350;55.922;2023-04-06T00:11:19;21.27;;;5.32;;
60068;SDS011;45945;53.350;55.922;2023-04-06T00:12:21;19.45;;;4.88;;
60068;SDS011;45945;53.350;55.922;2023-04-06T00:13:22;11.80;;;4.10;;
60068;SDS011;45945;53.350;55.922;2023-04-06T00:14:23;17.75;;;5.70;;
60068;SDS011;45945;53.350;55.922;2023-04-06T00:15:24;15.07;;;4.93;;
60068;SDS011;45945;53.350;55.922;2023-04-06T00:16:25;16.42;;;4.43;;
60068;SDS011;45945;53.350;55.922;2023-04-06T00:17:26;18.27;;;4.63;;
60068;SDS011;45945;53.350;55.922;2023-04-06T00:18:27;19.02;;;4.75;;
60068;SDS011;45945;53.350;55.922;2023-04-06T00:19:28;17.17;;;4.53;;
60068;SDS011;45945;53.350;55.922;2023-04-06T00:20:29;18.95;;;5.05;;
60068;SDS011;45945;53.350;55.922;2023-04-06T00:21:30;19.60;;;4.47;;
60068;SDS011;45945;53.350;55.922;2023-04-06T00:22:33;15.77;;;4.95;;
60068;SDS011;45945;53.350;55.922;2023-04-06T00:23:34;17.27;;;4.90;;
60068;SDS011;45945;53.350;55.922;2023-04-06T00:24:34;17.23;;;5.72;;
60068;SDS011;45945;53.350;55.922;2023-04-06T00:25:36;16.67;;;4.82;;
60068;SDS011;45945;53.350;55.922;2023-04-06T00:26:36;17.92;;;4.47;;
60068;SDS011;45945;53.350;55.922;2023-04-06T00:27:37;15.05;;;4.25;;
60068;SDS011;45945;53.350;55.922;2023-04-06T00:28:38;12.10;;;3.95;;
60068;SDS011;45945;53.350;55.922;2023-04-06T00:29:39;14.57;;;4.38;;
60068;SDS011;45945;53.350;55.922;2023-04-06T00:30:40;14.18;;;4.75;;
60068;SDS011;45945;53.350;55.922;2023-04-06T00:31:41;19.75;;;4.57;;
60068;SDS011;45945;53.350;55.922;2023-04-06T00:32:43;15.80;;;4.97;;
60068;SDS011;45945;53.350;55.922;2023-04-06T00:33:44;19.55;;;5.47;;
60068;SDS011;45945;53.350;55.922;2023-04-06T00:34:46;21.00;;;5.35;;
60068;SDS011;45945;53.350;55.922;2023-04-06T00:35:47;18.65;;;5.75;;
60068;SDS011;45945;53.350;55.922;2023-04-06T00:36:49;19.17;;;5.68;;
60068;SDS011;45945;53.350;55.922;2023-04-06T00:37:49;13.98;;;4.40;;
60068;SDS011;45945;53.350;55.922;2023-04-06T00:38:50;17.13;;;5.20;;
60068;SDS011;45945;53.350;55.922;2023-04-06T00:39:51;17.48;;;4.57;;
60068;SDS011;45945;53.350;55.922;2023-04-06T00:40:52;16.40;;;5.28;;
60068;SDS011;45945;53.350;55.922;2023-04-06T00:41:53;22.15;;;5.60;;
60068;SDS011;45945;53.350;55.922;2023-04-06T00:42:56;22.75;;;5.22;;
60068;SDS011;45945;53.350;55.922;2023-04-06T00:43:57;19.80;;;4.60;;
60068;SDS011;45945;53.350;55.922;2023-04-06T00:44:59;11.88;;;4.15;;
60068;SDS011;45945;53.350;55.922;2023-04-06T00:46:00;15.90;;;5.35;;
60068;SDS011;45945;53.350;55.922;2023-04-06T00:47:01;18.23;;;4.25;;
60068;SDS011;45945;53.350;55.922;2023-04-06T00:48:02;19.58;;;4.00;;
60068;SDS011;45945;53.350;55.922;2023-04-06T00:49:02;18.13;;;5.22;;
60068;SDS011;45945;53.350;55.922;2023-04-06T00:50:03;16.05;;;4.70;;
60068;SDS011;45945;53.350;55.922;2023-04-06T00:51:04;20.75;;;5.13;;
60068;SDS011;45945;53.350;55.922;2023-04-06T00:52:05;13.38;;;3.78;;
60068;SDS011;45945;53.350;55.922;2023-04-06T00:53:06;13.70;;;4.32;;
60068;SDS011;45945;53.350;55.922;2023-04-06T00:54:07;13.63;;;4.28;;
60068;SDS011;45945;53.350;55.922;2023-04-06T00:55:10;20.30;;;5.80;;
60068;SDS011;45945;53.350;55.922;2023-04-06T00:56:15;14.13;;;4.00;;
60068;SDS011;45945;53.350;55.922;2023-04-06T00:57:24;17.00;;;4.22;;
60068;SDS011;45945;53.350;55.922;2023-04-06T00:58:30;18.27;;;5.65;;
60068;SDS011;45945;53.350;55.922;2023-04-06T00:59:37;15.88;;;3.78;;
60068;SDS011;45945;53.350;55.922;2023-04-06T01:00:40;19.48;;;4.47;;
60068;SDS011;45945;53.350;55.922;2023-04-06T01:01:42;12.55;;;3.80;;
60068;SDS011;45945;53.350;55.922;2023-04-06T01:02:58;13.25;;;5.20;;
60068;SDS011;45945;53.350;55.922;2023-04-06T01:04:07;15.02;;;3.67;;
60068;SDS011;45945;53.350;55.922;2023-04-06T01:05:14;12.77;;;3.85;;
60068;SDS011;45945;53.350;55.922;2023-04-06T01:06:25;15.05;;;3.40;;
60068;SDS011;45945;53.350;55.922;2023-04-06T01:07:33;16.02;;;4.05;;
60068;SDS011;45945;53.350;55.922;2023-04-06T01:08:48;18.00;;;4.22;;
60068;SDS011;45945;53.350;55.922;2023-04-06T01:09:53;16.17;;;3.17;;
60068;SDS011;45945;53.350;55.922;2023-04-06T01:10:59;17.13;;;4.63;;
60068;SDS011;45945;53.350;55.922;2023-04-06T01:12:03;11.38;;;3.83;;
60068;SDS011;45945;53.350;55.922;2023-04-06T01:13:05;16.17;;;3.85;;
60068;SDS011;45945;53.350;55.922;2023-04-06T01:14:26;19.33;;;4.60;;
60068;SDS011;45945;53.350;55.922;2023-04-06T01:15:32;19.40;;;4.30;;
60068;SDS011;45945;53.350;55.922;2023-04-06T01:16:33;14.80;;;4.03;;
60068;SDS011;45945;53.350;55.922;2023-04-06T01:17:47;17.25;;;4.53;;
60068;SDS011;45945;53.350;55.922;2023-04-06T01:18:50;14.65;;;4.10;;
60068;SDS011;45945;53.350;55.922;2023-04-06T01:19:55;20.00;;;7.00;;
60068;SDS011;45945;53.350;55.922;2023-04-06T01:21:01;15.07;;;4.60;;
60068;SDS011;45945;53.350;55.922;2023-04-06T01:22:03;15.77;;;4.93;;
60068;SDS011;45945;53.350;55.922;2023-04-06T01:23:04;20.25;;;5.28;;
60068;SDS011;45945;53.350;55.922;2023-04-06T01:24:06;17.45;;;4.70;;
60068;SDS011;45945;53.350;55.922;2023-04-06T01:25:17;21.60;;;6.15;;
60068;SDS011;45945;53.350;55.922;2023-04-06T01:26:38;22.35;;;5.57;;
60068;SDS011;45945;53.350;55.922;2023-04-06T01:27:42;22.17;;;5.93;;
60068;SDS011;45945;53.350;55.922;2023-04-06T01:28:45;17.85;;;5.88;;
60068;SDS011;45945;53.350;55.922;2023-04-06T01:30:02;17.45;;;4.35;;
60068;SDS011;45945;53.350;55.922;2023-04-06T01:31:29;19.38;;;5.00;;
60068;SDS011;45945;53.350;55.922;2023-04-06T01:32:30;33.72;;;7.32;;
60068;SDS011;45945;53.350;55.922;2023-04-06T01:33:32;30.35;;;7.80;;
60068;SDS011;45945;53.350;55.922;2023-04-06T01:34:39;26.50;;;8.45;;
60068;SDS011;45945;53.350;55.922;2023-04-06T01:35:41;37.25;;;7.85;;
60068;SDS011;45945;53.350;55.922;2023-04-06T01:36:47;26.70;;;8.45;;
60068;SDS011;45945;53.350;55.922;2023-04-06T01:38:01;23.10;;;6.60;;
60068;SDS011;45945;53.350;55.922;2023-04-06T01:39:09;28.58;;;6.32;;
60068;SDS011;45945;53.350;55.922;2023-04-06T01:40:11;27.52;;;6.70;;
60068;SDS011;45945;53.350;55.922;2023-04-06T01:41:25;25.30;;;5.75;;
60068;SDS011;45945;53.350;55.922;2023-04-06T01:42:27;27.65;;;6.35;;
60068;SDS011;45945;53.350;55.922;2023-04-06T01:43:28;22.08;;;5.80;;
60068;SDS011;45945;53.350;55.922;2023-04-06T01:44:35;25.50;;;6.47;;
60068;SDS011;45945;53.350;55.922;2023-04-06T01:45:48;28.33;;;8.35;;
60068;SDS011;45945;53.350;55.922;2023-04-06T01:46:53;21.13;;;4.55;;
60068;SDS011;45945;53.350;55.922;2023-04-06T01:47:54;28.35;;;6.65;;
60068;SDS011;45945;53.350;55.922;2023-04-06T01:48:59;34.53;;;7.72;;
60068;SDS011;45945;53.350;55.922;2023-04-06T01:50:11;25.65;;;6.65;;
60068;SDS011;45945;53.350;55.922;2023-04-06T01:51:16;32.67;;;6.68;;
60068;SDS011;45945;53.350;55.922;2023-04-06T01:52:24;30.73;;;7.43;;
60068;SDS011;45945;53.350;55.922;2023-04-06T01:53:27;29.45;;;7.05;;
60068;SDS011;45945;53.350;55.922;2023-04-06T01:54:34;37.15;;;8.30;;
60068;SDS011;45945;53.350;55.922;2023-04-06T01:57:10;29.80;;;7.35;;
60068;SDS011;45945;53.350;55.922;2023-04-06T01:58:34;40.75;;;8.18;;
60068;SDS011;45945;53.350;55.922;2023-04-06T01:59:36;37.78;;;9.07;;
60068;SDS011;45945;53.350;55.922;2023-04-06T02:00:43;41.63;;;7.30;;
60068;SDS011;45945;53.350;55.922;2023-04-06T02:01:44;23.77;;;6.85;;
60068;SDS011;45945;53.350;55.922;2023-04-06T02:02:46;33.30;;;7.30;;
60068;SDS011;45945;53.350;55.922;2023-04-06T02:03:53;34.88;;;7.57;;
60068;SDS011;45945;53.350;55.922;2023-04-06T02:04:54;20.15;;;5.95;;
60068;SDS011;45945;53.350;55.922;2023-04-06T02:05:55;21.63;;;5.60;;
60068;SDS011;45945;53.350;55.922;2023-04-06T02:07:06;21.08;;;5.75;;
60068;SDS011;45945;53.350;55.922;2023-04-06T02:08:07;25.85;;;5.97;;
60068;SDS011;45945;53.350;55.922;2023-04-06T02:09:11;21.45;;;6.25;;
60068;SDS011;45945;53.350;55.922;2023-04-06T02:10:15;22.10;;;6.45;;
60068;SDS011;45945;53.350;55.922;2023-04-06T02:11:17;28.05;;;7.25;;
60068;SDS011;45945;53.350;55.922;2023-04-06T02:12:22;25.63;;;6.97;;
60068;SDS011;45945;53.350;55.922;2023-04-06T02:13:24;27.63;;;7.35;;
60068;SDS011;45945;53.350;55.922;2023-04-06T02:14:27;22.02;;;6.20;;
60068;SDS011;45945;53.350;55.922;2023-04-06T02:15:32;24.88;;;6.78;;
60068;SDS011;45945;53.350;55.922;2023-04-06T02:16:33;31.52;;;6.80;;
60068;SDS011;45945;53.350;55.922;2023-04-06T02:17:34;19.92;;;6.05;;
60068;SDS011;45945;53.350;55.922;2023-04-06T02:18:35;18.60;;;6.82;;
60068;SDS011;45945;53.350;55.922;2023-04-06T02:19:36;18.13;;;6.30;;
60068;SDS011;45945;53.350;55.922;2023-04-06T02:20:37;25.08;;;6.85;;
60068;SDS011;45945;53.350;55.922;2023-04-06T02:21:38;18.02;;;6.60;;
60068;SDS011;45945;53.350;55.922;2023-04-06T02:22:39;18.38;;;6.35;;
60068;SDS011;45945;53.350;55.922;2023-04-06T02:23:41;19.48;;;6.00;;
60068;SDS011;45945;53.350;55.922;2023-04-06T02:24:41;17.27;;;6.93;;
60068;SDS011;45945;53.350;55.922;2023-04-06T02:25:42;21.40;;;7.32;;
60068;SDS011;45945;53.350;55.922;2023-04-06T02:26:43;20.55;;;6.22;;
60068;SDS011;45945;53.350;55.922;2023-04-06T02:27:44;20.00;;;7.00;;
60068;SDS011;45945;53.350;55.922;2023-04-06T02:28:45;19.05;;;6.13;;
60068;SDS011;45945;53.350;55.922;2023-04-06T02:29:46;20.15;;;6.50;;
60068;SDS011;45945;53.350;55.922;2023-04-06T02:30:49;22.20;;;6.90;;
60068;SDS011;45945;53.350;55.922;2023-04-06T02:31:52;19.27;;;6.55;;
60068;SDS011;45945;53.350;55.922;2023-04-06T02:32:53;21.83;;;6.40;;
60068;SDS011;45945;53.350;55.922;2023-04-06T02:33:55;19.23;;;6.93;;
60068;SDS011;45945;53.350;55.922;2023-04-06T02:34:56;20.38;;;7.25;;
60068;SDS011;45945;53.350;55.922;2023-04-06T02:35:57;23.85;;;6.57;;
60068;SDS011;45945;53.350;55.922;2023-04-06T02:36:59;22.45;;;6.50;;
60068;SDS011;45945;53.350;55.922;2023-04-06T02:37:59;18.75;;;6.38;;
60068;SDS011;45945;53.350;55.922;2023-04-06T02:39:00;24.40;;;7.18;;
60068;SDS011;45945;53.350;55.922;2023-04-06T02:40:01;25.35;;;7.28;;
60068;SDS011;45945;53.350;55.922;2023-04-06T02:41:04;29.25;;;7.00;;
60068;SDS011;45945;53.350;55.922;2023-04-06T02:42:06;35.33;;;8.38;;
60068;SDS011;45945;53.350;55.922;2023-04-06T02:43:07;25.17;;;6.68;;
60068;SDS011;45945;53.350;55.922;2023-04-06T02:44:11;21.52;;;8.13;;
60068;SDS011;45945;53.350;55.922;2023-04-06T02:45:16;29.80;;;7.60;;
60068;SDS011;45945;53.350;55.922;2023-04-06T02:46:20;27.02;;;7.43;;
60068;SDS011;45945;53.350;55.922;2023-04-06T02:47:22;25.95;;;8.25;;
60068;SDS011;45945;53.350;55.922;2023-04-06T02:48:24;24.73;;;7.75;;
60068;SDS011;45945;53.350;55.922;2023-04-06T02:49:27;28.83;;;7.68;;
60068;SDS011;45945;53.350;55.922;2023-04-06T02:50:30;25.65;;;7.50;;
60068;SDS011;45945;53.350;55.922;2023-04-06T02:51:35;23.45;;;7.28;;
60068;SDS011;45945;53.350;55.922;2023-04-06T02:53:02;25.27;;;7.28;;
60068;SDS011;45945;53.350;55.922;2023-04-06T02:54:03;24.05;;;6.47;;
60068;SDS011;45945;53.350;55.922;2023-04-06T02:55:04;29.25;;;7.88;;
60068;SDS011;45945;53.350;55.922;2023-04-06T02:56:08;21.67;;;7.35;;
60068;SDS011;45945;53.350;55.922;2023-04-06T02:57:19;27.80;;;7.38;;
60068;SDS011;45945;53.350;55.922;2023-04-06T02:58:21;24.48;;;8.05;;
60068;SDS011;45945;53.350;55.922;2023-04-06T02:59:26;20.77;;;7.68;;
60068;SDS011;45945;53.350;55.922;2023-04-06T03:00:47;24.17;;;7.50;;
60068;SDS011;45945;53.350;55.922;2023-04-06T03:01:48;22.55;;;7.45;;
60068;SDS011;45945;53.350;55.922;2023-04-06T03:02:49;22.58;;;7.82;;
60068;SDS011;45945;53.350;55.922;2023-04-06T03:03:52;25.92;;;7.55;;
60068;SDS011;45945;53.350;55.922;2023-04-06T03:04:58;27.17;;;10.10;;
60068;SDS011;45945;53.350;55.922;2023-04-06T03:06:05;27.05;;;9.23;;
60068;SDS011;45945;53.350;55.922;2023-04-06T03:07:06;19.92;;;7.32;;
60068;SDS011;45945;53.350;55.922;2023-04-06T03:08:10;27.40;;;7.15;;
60068;SDS011;45945;53.350;55.922;2023-04-06T03:09:19;23.95;;;8.05;;
60068;SDS011;45945;53.350;55.922;2023-04-06T03:10:20;20.55;;;6.55;;
60068;SDS011;45945;53.350;55.922;2023-04-06T03:11:22;24.80;;;9.65;;
60068;SDS011;45945;53.350;55.922;2023-04-06T03:12:25;31.40;;;7.65;;
60068;SDS011;45945;53.350;55.922;2023-04-06T03:13:45;20.10;;;6.60;;
60068;SDS011;45945;53.350;55.922;2023-04-06T03:14:45;22.92;;;7.90;;
60068;SDS011;45945;53.350;55.922;2023-04-06T03:15:46;26.92;;;7.95;;
60068;SDS011;45945;53.350;55.922;2023-04-06T03:16:51;22.83;;;6.75;;
60068;SDS011;45945;53.350;55.922;2023-04-06T03:17:55;25.15;;;7.38;;
60068;SDS011;45945;53.350;55.922;2023-04-06T03:19:10;33.95;;;8.27;;
60068;SDS011;45945;53.350;55.922;2023-04-06T03:20:11;31.02;;;7.25;;
60068;SDS011;45945;53.350;55.922;2023-04-06T03:21:12;23.38;;;6.93;;
60068;SDS011;45945;53.350;55.922;2023-04-06T03:23:22;28.58;;;7.43;;
60068;SDS011;45945;53.350;55.922;2023-04-06T03:24:28;21.13;;;7.38;;
60068;SDS011;45945;53.350;55.922;2023-04-06T03:25:29;22.27;;;6.80;;
60068;SDS011;45945;53.350;55.922;2023-04-06T03:26:34;22.38;;;6.47;;
60068;SDS011;45945;53.350;55.922;2023-04-06T03:27:39;25.95;;;7.05;;
60068;SDS011;45945;53.350;55.922;2023-04-06T03:28:44;21.70;;;6.85;;
60068;SDS011;45945;53.350;55.922;2023-04-06T03:29:45;25.13;;;7.13;;
60068;SDS011;45945;53.350;55.922;2023-04-06T03:30:49;24.08;;;7.25;;
60068;SDS011;45945;53.350;55.922;2023-04-06T03:31:55;24.75;;;6.65;;
60068;SDS011;45945;53.350;55.922;2023-04-06T03:33:04;24.67;;;6.25;;
60068;SDS011;45945;53.350;55.922;2023-04-06T03:34:10;15.48;;;5.82;;
60068;SDS011;45945;53.350;55.922;2023-04-06T03:35:10;21.17;;;6.13;;
60068;SDS011;45945;53.350;55.922;2023-04-06T03:36:11;24.88;;;5.88;;
60068;SDS011;45945;53.350;55.922;2023-04-06T03:37:15;26.50;;;6.35;;
60068;SDS011;45945;53.350;55.922;2023-04-06T03:38:21;25.63;;;6.70;;
60068;SDS011;45945;53.350;55.922;2023-04-06T03:39:22;20.85;;;7.60;;
60068;SDS011;45945;53.350;55.922;2023-04-06T03:40:24;24.90;;;6.78;;
60068;SDS011;45945;53.350;55.922;2023-04-06T03:41:24;23.08;;;6.47;;
60068;SDS011;45945;53.350;55.922;2023-04-06T03:42:32;21.98;;;6.03;;
60068;SDS011;45945;53.350;55.922;2023-04-06T03:43:39;27.55;;;6.07;;
60068;SDS011;45945;53.350;55.922;2023-04-06T03:44:40;20.63;;;5.75;;
60068;SDS011;45945;53.350;55.922;2023-04-06T03:45:41;21.77;;;6.10;;
60068;SDS011;45945;53.350;55.922;2023-04-06T03:46:42;21.27;;;6.68;;
60068;SDS011;45945;53.350;55.922;2023-04-06T03:47:44;20.17;;;6.28;;
60068;SDS011;45945;53.350;55.922;2023-04-06T03:48:48;28.63;;;6.80;;
60068;SDS011;45945;53.350;55.922;2023-04-06T03:49:51;20.23;;;6.25;;
60068;SDS011;45945;53.350;55.922;2023-04-06T03:50:52;25.30;;;6.75;;
60068;SDS011;45945;53.350;55.922;2023-04-06T03:51:53;29.77;;;6.88;;
60068;SDS011;45945;53.350;55.922;2023-04-06T03:52:54;28.92;;;7.30;;
60068;SDS011;45945;53.350;55.922;2023-04-06T03:53:58;21.52;;;6.43;;
60068;SDS011;45945;53.350;55.922;2023-04-06T03:54:59;24.83;;;8.13;;
60068;SDS011;45945;53.350;55.922;2023-04-06T03:56:00;31.15;;;7.53;;
60068;SDS011;45945;53.350;55.922;2023-04-06T03:57:02;22.67;;;7.13;;
60068;SDS011;45945;53.350;55.922;2023-04-06T03:58:03;23.50;;;6.97;;
60068;SDS011;45945;53.350;55.922;2023-04-06T03:59:04;21.80;;;6.50;;
60068;SDS011;45945;53.350;55.922;2023-04-06T04:00:06;25.08;;;7.82;;
60068;SDS011;45945;53.350;55.922;2023-04-06T04:01:13;19.83;;;7.03;;
60068;SDS011;45945;53.350;55.922;2023-04-06T04:02:14;23.65;;;7.22;;
60068;SDS011;45945;53.350;55.922;2023-04-06T04:03:15;27.17;;;7.80;;
60068;SDS011;45945;53.350;55.922;2023-04-06T04:04:16;20.10;;;6.93;;
60068;SDS011;45945;53.350;55.922;2023-04-06T04:05:17;29.00;;;7.30;;
60068;SDS011;45945;53.350;55.922;2023-04-06T04:06:18;23.98;;;7.25;;
60068;SDS011;45945;53.350;55.922;2023-04-06T04:07:20;21.80;;;6.32;;
60068;SDS011;45945;53.350;55.922;2023-04-06T04:08:21;23.38;;;7.07;;
60068;SDS011;45945;53.350;55.922;2023-04-06T04:09:22;23.10;;;6.30;;
60068;SDS011;45945;53.350;55.922;2023-04-06T04:10:25;22.15;;;7.43;;
60068;SDS011;45945;53.350;55.922;2023-04-06T04:11:26;20.33;;;6.82;;
60068;SDS011;45945;53.350;55.922;2023-04-06T04:12:31;28.08;;;7.65;;
60068;SDS011;45945;53.350;55.922;2023-04-06T04:13:33;23.92;;;8.00;;
60068;SDS011;45945;53.350;55.922;2023-04-06T04:14:36;22.33;;;7.47;;
60068;SDS011;45945;53.350;55.922;2023-04-06T04:15:37;28.65;;;8.52;;
60068;SDS011;45945;53.350;55.922;2023-04-06T04:16:38;26.08;;;7.45;;
60068;SDS011;45945;53.350;55.922;2023-04-06T04:17:39;28.17;;;7.85;;
60068;SDS011;45945;53.350;55.922;2023-04-06T04:18:47;20.63;;;8.57;;
60068;SDS011;45945;53.350;55.922;2023-04-06T04:19:49;21.25;;;8.10;;
60068;SDS011;45945;53.350;55.922;2023-04-06T04:20:50;24.63;;;7.30;;
60068;SDS011;45945;53.350;55.922;2023-04-06T04:21:54;19.08;;;6.88;;
60068;SDS011;45945;53.350;55.922;2023-04-06T04:23:03;21.55;;;7.15;;
60068;SDS011;45945;53.350;55.922;2023-04-06T04:24:07;23.42;;;7.72;;
60068;SDS011;45945;53.350;55.922;2023-04-06T04:25:10;21.52;;;7.40;;
60068;SDS011;45945;53.350;55.922;2023-04-06T04:26:16;23.90;;;8.02;;
60068;SDS011;45945;53.350;55.922;2023-04-06T04:27:19;23.08;;;7.10;;
60068;SDS011;45945;53.350;55.922;2023-04-06T04:28:23;21.75;;;7.28;;
60068;SDS011;45945;53.350;55.922;2023-04-06T04:29:24;21.80;;;6.88;;
60068;SDS011;45945;53.350;55.922;2023-04-06T04:30:26;28.50;;;7.75;;
60068;SDS011;45945;53.350;55.922;2023-04-06T04:31:28;25.48;;;7.05;;
60068;SDS011;45945;53.350;55.922;2023-04-06T04:32:32;25.38;;;7.18;;
60068;SDS011;45945;53.350;55.922;2023-04-06T04:33:35;24.70;;;7.15;;
60068;SDS011;45945;53.350;55.922;2023-04-06T04:34:41;26.20;;;9.23;;
60068;SDS011;45945;53.350;55.922;2023-04-06T04:35:48;24.17;;;8.07;;
60068;SDS011;45945;53.350;55.922;2023-04-06T04:36:52;21.10;;;6.93;;
60068;SDS011;45945;53.350;55.922;2023-04-06T04:38:01;24.70;;;6.75;;
60068;SDS011;45945;53.350;55.922;2023-04-06T04:39:02;22.80;;;6.32;;
60068;SDS011;45945;53.350;55.922;2023-04-06T04:40:08;16.15;;;6.85;;
60068;SDS011;45945;53.350;55.922;2023-04-06T04:41:19;21.92;;;5.95;;
60068;SDS011;45945;53.350;55.922;2023-04-06T04:42:21;21.67;;;7.07;;
60068;SDS011;45945;53.350;55.922;2023-04-06T04:43:25;31.13;;;6.90;;
60068;SDS011;45945;53.350;55.922;2023-04-06T04:44:27;19.27;;;5.82;;
60068;SDS011;45945;53.350;55.922;2023-04-06T04:45:28;21.45;;;6.38;;
60068;SDS011;45945;53.350;55.922;2023-04-06T04:46:30;23.10;;;6.32;;
60068;SDS011;45945;53.350;55.922;2023-04-06T04:47:31;17.60;;;5.25;;
60068;SDS011;45945;53.350;55.922;2023-04-06T04:48:32;22.60;;;6.22;;
60068;SDS011;45945;53.350;55.922;2023-04-06T04:49:35;19.08;;;5.28;;
60068;SDS011;45945;53.350;55.922;2023-04-06T04:50:37;21.95;;;5.43;;
60068;SDS011;45945;53.350;55.922;2023-04-06T04:51:38;21.80;;;5.85;;
60068;SDS011;45945;53.350;55.922;2023-04-06T04:52:56;23.83;;;6.22;;
60068;SDS011;45945;53.350;55.922;2023-04-06T04:53:59;19.95;;;5.20;;
60068;SDS011;45945;53.350;55.922;2023-04-06T04:55:04;20.42;;;6.05;;
60068;SDS011;45945;53.350;55.922;2023-04-06T04:56:05;31.33;;;11.40;;
60068;SDS011;45945;53.350;55.922;2023-04-06T04:57:06;22.40;;;6.05;;
60068;SDS011;45945;53.350;55.922;2023-04-06T04:58:14;23.20;;;7.18;;
60068;SDS011;45945;53.350;55.922;2023-04-06T04:59:27;24.48;;;6.40;;
60068;SDS011;45945;53.350;55.922;2023-04-06T05:00:35;24.23;;;6.18;;
60068;SDS011;45945;53.350;55.922;2023-04-06T05:01:36;18.67;;;6.30;;
60068;SDS011;45945;53.350;55.922;2023-04-06T05:02:37;25.95;;;6.88;;
60068;SDS011;45945;53.350;55.922;2023-04-06T05:03:47;23.40;;;6.03;;
60068;SDS011;45945;53.350;55.922;2023-04-06T05:04:50;21.27;;;6.40;;
60068;SDS011;45945;53.350;55.922;2023-04-06T05:05:55;27.10;;;6.68;;
60068;SDS011;45945;53.350;55.922;2023-04-06T05:07:03;21.05;;;6.35;;
60068;SDS011;45945;53.350;55.922;2023-04-06T05:08:04;25.05;;;6.93;;
60068;SDS011;45945;53.350;55.922;2023-04-06T05:09:14;20.05;;;7.25;;
60068;SDS011;45945;53.350;55.922;2023-04-06T05:10:17;24.77;;;6.63;;
60068;SDS011;45945;53.350;55.922;2023-04-06T05:11:26;21.90;;;6.03;;
60068;SDS011;45945;53.350;55.922;2023-04-06T05:12:32;22.27;;;6.63;;
60068;SDS011;45945;53.350;55.922;2023-04-06T05:13:39;25.92;;;6.55;;
60068;SDS011;45945;53.350;55.922;2023-04-06T05:14:50;23.33;;;6.30;;
60068;SDS011;45945;53.350;55.922;2023-04-06T05:15:53;32.47;;;8.07;;
60068;SDS011;45945;53.350;55.922;2023-04-06T05:18:15;23.45;;;7.28;;
60068;SDS011;45945;53.350;55.922;2023-04-06T05:19:16;25.95;;;7.57;;
60068;SDS011;45945;53.350;55.922;2023-04-06T05:20:19;22.38;;;6.15;;
60068;SDS011;45945;53.350;55.922;2023-04-06T05:21:23;22.27;;;6.57;;
60068;SDS011;45945;53.350;55.922;2023-04-06T05:22:31;24.23;;;6.18;;
60068;SDS011;45945;53.350;55.922;2023-04-06T05:23:39;27.88;;;7.55;;
60068;SDS011;45945;53.350;55.922;2023-04-06T05:24:40;21.02;;;6.60;;
60068;SDS011;45945;53.350;55.922;2023-04-06T05:25:42;19.42;;;6.20;;
60068;SDS011;45945;53.350;55.922;2023-04-06T05:26:51;33.47;;;13.15;;
60068;SDS011;45945;53.350;55.922;2023-04-06T05:27:56;26.90;;;8.07;;
60068;SDS011;45945;53.350;55.922;2023-04-06T05:29:06;26.75;;;6.97;;
60068;SDS011;45945;53.350;55.922;2023-04-06T05:30:10;28.92;;;8.13;;
60068;SDS011;45945;53.350;55.922;2023-04-06T05:31:17;24.63;;;7.38;;
60068;SDS011;45945;53.350;55.922;2023-04-06T05:32:24;28.35;;;7.18;;
60068;SDS011;45945;53.350;55.922;2023-04-06T05:33:26;26.98;;;8.02;;
60068;SDS011;45945;53.350;55.922;2023-04-06T05:34:36;28.25;;;6.50;;
60068;SDS011;45945;53.350;55.922;2023-04-06T05:35:41;23.45;;;6.63;;
60068;SDS011;45945;53.350;55.922;2023-04-06T05:36:46;25.77;;;6.97;;
60068;SDS011;45945;53.350;55.922;2023-04-06T05:37:56;31.77;;;7.45;;
60068;SDS011;45945;53.350;55.922;2023-04-06T05:38:59;25.63;;;7.03;;
60068;SDS011;45945;53.350;55.922;2023-04-06T05:40:11;27.00;;;6.82;;
60068;SDS011;45945;53.350;55.922;2023-04-06T05:41:13;26.50;;;7.90;;
60068;SDS011;45945;53.350;55.922;2023-04-06T05:42:15;24.52;;;6.78;;
60068;SDS011;45945;53.350;55.922;2023-04-06T05:43:34;22.00;;;7.00;;
60068;SDS011;45945;53.350;55.922;2023-04-06T05:44:36;31.60;;;7.75;;
60068;SDS011;45945;53.350;55.922;2023-04-06T05:45:45;29.58;;;7.70;;
60068;SDS011;45945;53.350;55.922;2023-04-06T05:46:46;28.05;;;8.38;;
60068;SDS011;45945;53.350;55.922;2023-04-06T05:47:50;27.23;;;7.90;;
60068;SDS011;45945;53.350;55.922;2023-04-06T05:48:57;29.42;;;8.15;;
60068;SDS011;45945;53.350;55.922;2023-04-06T05:50:01;30.98;;;7.25;;
60068;SDS011;45945;53.350;55.922;2023-04-06T05:51:11;34.65;;;8.45;;
60068;SDS011;45945;53.350;55.922;2023-04-06T05:52:21;31.88;;;8.50;;
60068;SDS011;45945;53.350;55.922;2023-04-06T05:53:23;28.27;;;7.15;;
60068;SDS011;45945;53.350;55.922;2023-04-06T05:54:29;32.50;;;8.27;;
60068;SDS011;45945;53.350;55.922;2023-04-06T05:55:34;29.70;;;7.55;;
60068;SDS011;45945;53.350;55.922;2023-04-06T05:56:55;28.42;;;8.73;;
60068;SDS011;45945;53.350;55.922;2023-04-06T05:57:56;27.35;;;8.95;;
60068;SDS011;45945;53.350;55.922;2023-04-06T05:58:56;32.53;;;8.68;;
60068;SDS011;45945;53.350;55.922;2023-04-06T06:00:02;29.70;;;9.05;;
60068;SDS011;45945;53.350;55.922;2023-04-06T06:01:13;27.73;;;8.88;;
60068;SDS011;45945;53.350;55.922;2023-04-06T06:02:18;36.67;;;11.43;;
60068;SDS011;45945;53.350;55.922;2023-04-06T06:03:22;41.97;;;12.77;;
60068;SDS011;45945;53.350;55.922;2023-04-06T06:04:27;38.85;;;14.35;;
60068;SDS011;45945;53.350;55.922;2023-04-06T06:05:29;43.17;;;17.25;;
60068;SDS011;45945;53.350;55.922;2023-04-06T06:06:33;39.42;;;17.38;;
60068;SDS011;45945;53.350;55.922;2023-04-06T06:07:56;34.17;;;14.40;;
60068;SDS011;45945;53.350;55.922;2023-04-06T06:08:57;42.38;;;15.70;;
60068;SDS011;45945;53.350;55.922;2023-04-06T06:10:02;34.13;;;15.43;;
60068;SDS011;45945;53.350;55.922;2023-04-06T06:11:07;34.70;;;13.73;;
60068;SDS011;45945;53.350;55.922;2023-04-06T06:12:08;39.45;;;13.52;;
60068;SDS011;45945;53.350;55.922;2023-04-06T06:13:09;37.20;;;12.65;;
60068;SDS011;45945;53.350;55.922;2023-04-06T06:14:10;38.20;;;12.82;;
60068;SDS011;45945;53.350;55.922;2023-04-06T06:15:13;26.73;;;11.48;;
60068;SDS011;45945;53.350;55.922;2023-04-06T06:16:18;40.38;;;11.98;;
60068;SDS011;45945;53.350;55.922;2023-04-06T06:17:22;30.55;;;11.07;;
60068;SDS011;45945;53.350;55.922;2023-04-06T06:18:23;32.38;;;11.40;;